createdAt,value
2022-12-09T00:01:11.303Z,2.92
2022-12-09T00:03:38.618Z,3.35
2022-12-09T00:06:11.953Z,3.03
2022-12-09T00:08:38.842Z,3.10
2022-12-09T00:11:06.700Z,3.25
2022-12-09T00:13:34.234Z,3.35
2022-12-09T00:16:05.890Z,3.35
2022-12-09T00:18:32.873Z,3.55
2022-12-09T00:20:59.739Z,3.53
2022-12-09T00:23:26.644Z,3.60
2022-12-09T00:25:57.313Z,3.70
2022-12-09T00:28:23.981Z,3.20
2022-12-09T00:30:51.023Z,3.40
2022-12-09T00:33:17.844Z,2.92
2022-12-09T00:35:44.546Z,3.08
2022-12-09T00:38:11.450Z,3.45
2022-12-09T00:40:38.112Z,3.80
2022-12-09T00:43:04.753Z,4.28
2022-12-09T00:45:31.371Z,3.80
2022-12-09T00:47:58.521Z,4.40
2022-12-09T00:50:25.862Z,4.07
2022-12-09T00:52:52.618Z,6.05
2022-12-09T00:55:19.504Z,7.00
2022-12-09T00:57:46.367Z,7.25
2022-12-09T01:00:13.359Z,8.18
2022-12-09T01:02:40.205Z,7.80
2022-12-09T01:05:07.604Z,4.90
2022-12-09T01:07:34.463Z,5.05
2022-12-09T01:10:01.085Z,4.20
2022-12-09T01:12:27.788Z,3.88
2022-12-09T01:14:54.660Z,4.68
2022-12-09T01:17:21.470Z,4.60
2022-12-09T01:19:48.326Z,4.82
2022-12-09T01:22:15.452Z,5.00
2022-12-09T01:24:42.652Z,4.65
2022-12-09T01:27:09.480Z,5.30
2022-12-09T01:29:36.290Z,5.30
2022-12-09T01:32:03.684Z,5.75
2022-12-09T01:34:30.893Z,5.05
2022-12-09T01:36:57.543Z,5.60
2022-12-09T01:39:24.582Z,4.45
2022-12-09T01:41:52.046Z,4.00
2022-12-09T01:44:18.923Z,3.92
2022-12-09T01:46:47.101Z,4.25
2022-12-09T01:49:37.366Z,3.53
2022-12-09T01:52:23.847Z,3.83
2022-12-09T01:54:52.875Z,3.70
2022-12-09T01:57:19.869Z,3.40
2022-12-09T01:59:46.805Z,3.40
2022-12-09T02:02:19.088Z,3.42
2022-12-09T02:04:49.300Z,3.47
2022-12-09T02:07:19.292Z,3.72
2022-12-09T02:09:47.113Z,3.67
2022-12-09T02:12:34.212Z,4.18
2022-12-09T02:15:43.578Z,4.00
2022-12-09T02:18:33.054Z,4.65
2022-12-09T02:21:05.184Z,4.90
2022-12-09T02:23:41.365Z,4.85
2022-12-09T02:26:25.332Z,5.50
2022-12-09T02:29:17.151Z,5.38
2022-12-09T02:34:23.220Z,4.95
2022-12-09T02:37:04.463Z,5.13
2022-12-09T02:39:43.249Z,5.55
2022-12-09T02:42:16.465Z,5.63
2022-12-09T02:44:47.558Z,5.05
2022-12-09T02:47:18.920Z,5.82
2022-12-09T02:49:50.672Z,5.13
2022-12-09T02:52:19.785Z,5.85
2022-12-09T02:54:47.654Z,5.63
2022-12-09T02:57:24.081Z,4.80
2022-12-09T02:59:50.820Z,5.25
2022-12-09T03:02:31.777Z,5.68
2022-12-09T03:05:27.432Z,5.32
2022-12-09T03:08:00.378Z,4.78
2022-12-09T03:10:36.811Z,4.70
2022-12-09T03:13:11.768Z,4.85
2022-12-09T03:15:44.145Z,4.90
2022-12-09T03:18:15.982Z,4.93
2022-12-09T03:20:45.204Z,4.93
2022-12-09T03:23:16.097Z,5.07
2022-12-09T03:25:52.334Z,5.10
2022-12-09T03:28:28.520Z,4.85
2022-12-09T03:30:59.046Z,4.65
2022-12-09T03:33:28.124Z,5.18
2022-12-09T03:35:58.218Z,4.55
2022-12-09T03:38:28.862Z,4.95
2022-12-09T03:41:14.840Z,5.25
2022-12-09T03:43:48.154Z,5.63
2022-12-09T03:46:15.178Z,6.45
2022-12-09T03:48:42.190Z,5.50
2022-12-09T03:51:35.757Z,5.68
2022-12-09T03:54:13.861Z,6.15
2022-12-09T03:56:44.096Z,6.25
2022-12-09T03:59:13.731Z,5.53
2022-12-09T04:01:42.913Z,6.15
2022-12-09T04:04:10.188Z,6.07
2022-12-09T04:06:37.224Z,6.85
2022-12-09T04:09:05.415Z,6.40
2022-12-09T04:11:33.443Z,7.30
2022-12-09T04:14:00.530Z,6.63
2022-12-09T04:16:27.775Z,6.32
2022-12-09T04:18:54.777Z,7.00
2022-12-09T04:21:22.005Z,6.80
2022-12-09T04:23:48.698Z,6.53
2022-12-09T04:26:23.764Z,6.40
2022-12-09T04:28:51.246Z,5.68
2022-12-09T04:31:19.111Z,6.50
2022-12-09T04:33:46.840Z,6.05
2022-12-09T04:36:16.921Z,5.55
2022-12-09T04:38:44.263Z,5.95
2022-12-09T04:41:11.768Z,5.90
2022-12-09T04:43:38.847Z,5.90
2022-12-09T04:46:08.375Z,5.90
2022-12-09T04:48:35.053Z,5.28
2022-12-09T04:51:02.056Z,5.57
2022-12-09T04:53:29.299Z,5.40
2022-12-09T04:56:19.090Z,6.13
2022-12-09T04:58:46.793Z,5.68
2022-12-09T05:01:18.132Z,6.40
2022-12-09T05:03:50.198Z,6.15
2022-12-09T05:06:18.448Z,6.88
2022-12-09T05:08:45.894Z,6.95
2022-12-09T05:11:14.851Z,6.63
2022-12-09T05:13:41.960Z,7.30
2022-12-09T05:16:15.999Z,6.63
2022-12-09T05:18:45.016Z,6.40
2022-12-09T05:21:15.079Z,5.22
2022-12-09T05:23:43.060Z,6.28
2022-12-09T05:26:13.830Z,6.50
2022-12-09T05:28:41.029Z,5.53
2022-12-09T05:31:11.816Z,6.18
2022-12-09T05:33:39.604Z,5.68
2022-12-09T05:36:11.213Z,6.00
2022-12-09T05:38:38.256Z,6.50
2022-12-09T05:41:05.471Z,7.13
2022-12-09T05:43:33.549Z,6.80
2022-12-09T05:46:01.881Z,6.15
2022-12-09T05:48:29.551Z,6.55
2022-12-09T05:51:05.303Z,6.38
2022-12-09T05:53:32.816Z,6.53
2022-12-09T05:56:00.040Z,7.05
2022-12-09T05:58:27.124Z,7.85
2022-12-09T06:00:56.720Z,8.82
2022-12-09T06:03:25.272Z,9.02
2022-12-09T06:05:52.652Z,10.02
2022-12-09T06:08:19.948Z,9.68
2022-12-09T06:10:47.339Z,9.77
2022-12-09T06:13:14.653Z,10.00
2022-12-09T06:15:41.635Z,9.02
2022-12-09T06:18:08.914Z,8.60
2022-12-09T06:20:40.013Z,8.38
2022-12-09T06:23:07.384Z,8.63
2022-12-09T06:25:34.350Z,10.10
2022-12-09T06:28:01.473Z,9.10
2022-12-09T06:30:28.528Z,9.55
2022-12-09T06:32:55.620Z,9.88
2022-12-09T06:35:22.794Z,9.23
2022-12-09T06:37:52.969Z,10.43
2022-12-09T06:40:22.740Z,9.70
2022-12-09T06:42:51.259Z,9.35
2022-12-09T06:45:19.972Z,9.10
2022-12-09T06:47:47.768Z,9.73
2022-12-09T06:50:15.568Z,10.65
2022-12-09T06:52:42.829Z,10.00
2022-12-09T06:55:10.561Z,9.95
2022-12-09T06:57:37.739Z,9.63
2022-12-09T07:00:06.420Z,9.82
2022-12-09T07:02:36.750Z,10.25
2022-12-09T07:05:04.206Z,9.85
2022-12-09T07:07:31.917Z,10.27
2022-12-09T07:09:59.042Z,10.15
2022-12-09T07:12:26.595Z,9.20
2022-12-09T07:14:53.495Z,9.90
2022-12-09T07:17:20.853Z,9.75
2022-12-09T07:19:48.239Z,9.35
2022-12-09T07:22:15.268Z,9.48
2022-12-09T07:24:42.552Z,9.60
2022-12-09T07:27:19.285Z,9.70
2022-12-09T07:29:47.264Z,9.73
2022-12-09T07:32:14.888Z,10.82
2022-12-09T07:34:42.448Z,10.05
2022-12-09T07:37:09.971Z,10.43
2022-12-09T07:39:36.836Z,10.50
2022-12-09T07:42:03.848Z,10.18
2022-12-09T07:44:31.223Z,9.35
2022-12-09T07:46:58.595Z,10.40
2022-12-09T07:49:25.887Z,10.65
2022-12-09T07:51:52.841Z,10.02
2022-12-09T07:54:21.245Z,10.55
2022-12-09T07:56:48.699Z,9.75
2022-12-09T07:59:16.897Z,11.13
2022-12-09T08:01:44.822Z,10.52
2022-12-09T08:04:12.313Z,10.27
2022-12-09T08:06:39.461Z,10.65
2022-12-09T08:09:09.414Z,9.52
2022-12-09T08:11:36.812Z,8.90
2022-12-09T08:14:11.402Z,9.95
2022-12-09T08:16:40.807Z,9.95
2022-12-09T08:19:08.119Z,8.98
2022-12-09T08:21:35.331Z,10.00
2022-12-09T08:24:06.056Z,11.43
2022-12-09T08:26:34.992Z,10.18
2022-12-09T08:29:02.090Z,10.77
2022-12-09T08:31:30.311Z,10.18
2022-12-09T08:33:58.601Z,11.48
2022-12-09T08:36:27.574Z,8.73
2022-12-09T08:38:56.205Z,10.20
2022-12-09T08:41:37.448Z,9.23
2022-12-09T08:44:17.990Z,8.98
2022-12-09T08:46:51.034Z,8.80
2022-12-09T08:49:22.085Z,9.52
2022-12-09T08:51:50.951Z,9.45
2022-12-09T08:54:18.876Z,9.48
2022-12-09T08:56:55.156Z,9.52
2022-12-09T08:59:23.001Z,9.77
2022-12-09T09:01:50.463Z,9.65
2022-12-09T09:04:19.708Z,9.40
2022-12-09T09:06:50.180Z,9.63
2022-12-09T09:09:19.283Z,9.05
2022-12-09T09:11:46.719Z,9.88
2022-12-09T09:14:14.970Z,10.52
2022-12-09T09:16:43.436Z,9.27
2022-12-09T09:19:20.654Z,8.98
2022-12-09T09:21:47.936Z,9.82
2022-12-09T09:24:18.239Z,10.35
2022-12-09T09:26:45.780Z,10.02
2022-12-09T09:29:16.826Z,11.10
2022-12-09T09:31:44.058Z,11.13
2022-12-09T09:34:11.446Z,10.93
2022-12-09T09:36:39.688Z,11.07
2022-12-09T09:39:06.910Z,10.45
2022-12-09T09:41:46.373Z,13.73
2022-12-09T09:44:33.172Z,12.68
2022-12-09T09:47:02.097Z,11.82
2022-12-09T09:49:48.531Z,11.55
2022-12-09T09:52:22.560Z,11.13
2022-12-09T09:54:49.506Z,11.40
2022-12-09T09:57:20.840Z,11.32
2022-12-09T10:00:23.211Z,11.52
2022-12-09T10:03:02.508Z,11.07
2022-12-09T10:05:30.481Z,11.23
2022-12-09T10:08:21.999Z,10.73
2022-12-09T10:11:08.117Z,11.00
2022-12-09T10:14:24.159Z,11.25
2022-12-09T10:16:59.394Z,11.35
2022-12-09T10:19:39.541Z,11.80
2022-12-09T10:22:15.445Z,11.82
2022-12-09T10:24:55.434Z,11.13
2022-12-09T10:27:36.004Z,11.65
2022-12-09T10:30:11.853Z,11.15
2022-12-09T10:32:40.168Z,11.55
2022-12-09T10:35:22.642Z,15.90
2022-12-09T10:37:52.631Z,13.73
2022-12-09T10:40:36.213Z,14.00
2022-12-09T10:43:36.305Z,12.07
2022-12-09T10:46:19.535Z,11.90
2022-12-09T10:48:47.464Z,14.18
2022-12-09T10:51:18.639Z,13.77
2022-12-09T10:53:49.579Z,12.68
2022-12-09T10:56:28.849Z,11.32
2022-12-09T10:59:14.553Z,11.60
2022-12-09T11:01:55.088Z,11.10
2022-12-09T11:04:43.997Z,11.20
2022-12-09T11:07:23.190Z,12.30
2022-12-09T11:09:56.716Z,11.90
2022-12-09T11:12:27.430Z,10.82
2022-12-09T11:14:58.388Z,12.32
2022-12-09T11:17:31.583Z,13.60
2022-12-09T11:20:21.424Z,12.00
2022-12-09T11:23:15.487Z,13.45
2022-12-09T11:25:59.429Z,12.45
2022-12-09T11:28:38.593Z,13.93
2022-12-09T11:31:33.402Z,12.15
2022-12-09T11:34:18.040Z,12.23
2022-12-09T11:36:52.425Z,12.43
2022-12-09T11:39:31.330Z,13.77
2022-12-09T11:42:18.848Z,12.38
2022-12-09T11:44:52.443Z,13.35
2022-12-09T11:47:50.467Z,12.40
2022-12-09T11:50:24.139Z,11.43
2022-12-09T11:53:12.898Z,12.40
2022-12-09T11:55:51.809Z,11.38
2022-12-09T11:58:25.363Z,12.07
2022-12-09T12:00:58.498Z,12.60
2022-12-09T12:03:47.389Z,11.27
2022-12-09T12:06:21.532Z,12.35
2022-12-09T12:09:34.309Z,12.13
2022-12-09T12:12:36.329Z,10.90
2022-12-09T12:15:15.012Z,11.93
2022-12-09T12:17:45.999Z,9.60
2022-12-09T12:20:13.636Z,11.77
2022-12-09T12:22:51.522Z,11.80
2022-12-09T12:25:24.006Z,12.48
2022-12-09T12:28:18.202Z,11.38
2022-12-09T12:31:05.661Z,12.68
2022-12-09T12:34:23.133Z,12.10
2022-12-09T12:36:46.086Z,10.63
2022-12-09T12:39:25.243Z,11.13
2022-12-09T12:42:07.288Z,11.20
2022-12-09T12:45:28.075Z,12.07
2022-12-09T12:47:57.763Z,10.45
2022-12-09T12:51:06.562Z,11.50
2022-12-09T12:53:55.471Z,10.98
2022-12-09T12:56:41.084Z,12.15
2022-12-09T12:59:11.803Z,10.93
2022-12-09T13:01:57.524Z,11.80
2022-12-09T13:04:46.949Z,11.85
2022-12-09T13:07:20.075Z,11.77
2022-12-09T13:10:35.162Z,11.80
2022-12-09T13:13:04.703Z,12.02
2022-12-09T13:15:32.364Z,10.70
2022-12-09T13:18:17.110Z,12.00
2022-12-09T13:20:52.419Z,11.30
2022-12-09T13:23:33.000Z,11.27
2022-12-09T13:26:30.558Z,10.93
2022-12-09T13:29:06.596Z,12.07
2022-12-09T13:31:35.604Z,12.13
2022-12-09T13:34:27.962Z,11.15
2022-12-09T13:36:54.593Z,11.20
2022-12-09T13:39:39.668Z,10.85
2022-12-09T13:42:53.909Z,12.10
2022-12-09T13:45:43.422Z,11.48
2022-12-09T13:48:17.070Z,11.68
2022-12-09T13:50:51.465Z,10.68
2022-12-09T13:53:21.216Z,11.88
2022-12-09T13:55:53.072Z,11.77
2022-12-09T13:58:37.663Z,12.27
2022-12-09T14:01:04.844Z,11.52
2022-12-09T14:03:37.151Z,11.98
2022-12-09T14:06:17.642Z,12.00
2022-12-09T14:08:51.121Z,11.50
2022-12-09T14:11:44.317Z,10.88
2022-12-09T14:14:23.252Z,11.68
2022-12-09T14:16:51.357Z,12.50
2022-12-09T14:19:24.074Z,11.98
2022-12-09T14:22:19.671Z,11.68
2022-12-09T14:25:19.125Z,11.93
2022-12-09T14:28:10.848Z,12.48
2022-12-09T14:31:04.775Z,11.00
2022-12-09T14:33:47.737Z,11.98
2022-12-09T14:36:14.304Z,11.65
2022-12-09T14:39:24.137Z,12.63
2022-12-09T14:41:59.188Z,11.77
2022-12-09T14:44:43.858Z,12.18
2022-12-09T14:47:24.519Z,12.60
2022-12-09T14:49:54.041Z,12.75
2022-12-09T14:52:29.050Z,13.40
2022-12-09T14:54:59.074Z,12.15
2022-12-09T14:57:41.553Z,11.38
2022-12-09T15:00:25.015Z,11.68
2022-12-09T15:03:23.461Z,11.45
2022-12-09T15:05:40.127Z,11.80
2022-12-09T15:08:06.823Z,12.98
2022-12-09T15:10:36.504Z,13.75
2022-12-09T15:13:05.430Z,13.07
2022-12-09T15:15:36.491Z,13.25
2022-12-09T15:18:07.741Z,13.20
2022-12-09T15:20:37.681Z,13.10
2022-12-09T15:23:19.416Z,13.05
2022-12-09T15:25:48.625Z,12.23
2022-12-09T15:28:27.076Z,11.48
2022-12-09T15:30:58.918Z,12.15
2022-12-09T15:33:27.104Z,11.85
2022-12-09T15:36:05.000Z,12.30
2022-12-09T15:38:41.097Z,13.70
2022-12-09T15:41:27.957Z,12.15
2022-12-09T15:43:59.377Z,11.60
2022-12-09T15:46:27.706Z,13.10
2022-12-09T15:48:57.444Z,12.73
2022-12-09T15:51:26.770Z,12.10
2022-12-09T15:53:58.518Z,11.73
2022-12-09T15:56:31.268Z,11.02
2022-12-09T15:59:12.959Z,12.73
2022-12-09T16:01:42.107Z,12.50
2022-12-09T16:04:09.920Z,11.70
2022-12-09T16:06:37.712Z,12.30
2022-12-09T16:09:13.743Z,12.00
2022-12-09T16:11:52.941Z,12.45
2022-12-09T16:14:21.921Z,11.65
2022-12-09T16:17:00.187Z,12.15
2022-12-09T16:19:36.780Z,11.65
2022-12-09T16:22:07.541Z,11.93
2022-12-09T16:25:06.049Z,11.32
2022-12-09T16:27:25.390Z,10.63
2022-12-09T16:30:14.372Z,12.57
2022-12-09T16:32:47.509Z,11.55
2022-12-09T16:35:17.288Z,12.15
2022-12-09T16:38:13.949Z,11.90
2022-12-09T16:40:43.760Z,12.43
2022-12-09T16:43:16.558Z,11.88
2022-12-09T16:45:50.534Z,13.05
2022-12-09T16:48:19.202Z,11.65
2022-12-09T16:50:56.173Z,11.98
2022-12-09T16:53:26.904Z,13.35
2022-12-09T16:55:55.897Z,11.88
2022-12-09T16:58:22.974Z,11.75
2022-12-09T17:00:50.505Z,12.50
2022-12-09T17:03:30.403Z,11.85
2022-12-09T17:05:57.141Z,11.75
2022-12-09T17:08:23.939Z,11.73
2022-12-09T17:10:50.671Z,12.80
2022-12-09T17:13:17.362Z,12.13
2022-12-09T17:15:44.001Z,12.35
2022-12-09T17:18:11.147Z,12.00
2022-12-09T17:20:38.457Z,12.88
2022-12-09T17:23:05.452Z,13.25
2022-12-09T17:25:33.330Z,12.38
2022-12-09T17:28:05.261Z,11.98
2022-12-09T17:30:31.971Z,12.27
2022-12-09T17:32:59.709Z,11.68
2022-12-09T17:35:27.183Z,11.80
2022-12-09T17:37:53.825Z,11.75
2022-12-09T17:40:20.504Z,12.07
2022-12-09T17:42:47.207Z,11.05
2022-12-09T17:45:13.912Z,10.95
2022-12-09T17:47:40.569Z,12.88
2022-12-09T17:50:07.659Z,11.43
2022-12-09T17:52:34.647Z,11.27
2022-12-09T17:55:01.406Z,11.07
2022-12-09T17:57:28.128Z,10.93
2022-12-09T17:59:54.745Z,12.43
2022-12-09T18:02:21.450Z,10.88
2022-12-09T18:04:48.167Z,11.93
2022-12-09T18:07:14.832Z,11.95
2022-12-09T18:09:41.517Z,11.48
2022-12-09T18:12:08.168Z,10.65
2022-12-09T18:14:34.889Z,10.45
2022-12-09T18:17:01.654Z,11.88
2022-12-09T18:19:29.978Z,11.50
2022-12-09T18:21:57.421Z,11.32
2022-12-09T18:24:24.180Z,11.65
2022-12-09T18:26:50.849Z,11.63
2022-12-09T18:29:17.645Z,11.75
2022-12-09T18:31:49.572Z,12.13
2022-12-09T18:34:19.379Z,11.40
2022-12-09T18:36:46.082Z,14.27
2022-12-09T18:39:12.792Z,12.93
2022-12-09T18:41:39.470Z,11.68
2022-12-09T18:44:07.301Z,13.93
2022-12-09T18:46:37.081Z,12.95
2022-12-09T18:49:24.708Z,11.48
2022-12-09T18:51:52.733Z,11.52
2022-12-09T18:54:23.474Z,10.25
2022-12-09T18:56:51.113Z,11.73
2022-12-09T18:59:19.324Z,10.32
2022-12-09T19:01:47.142Z,11.02
2022-12-09T19:04:16.807Z,11.40
2022-12-09T19:06:45.769Z,10.07
2022-12-09T19:09:24.184Z,11.98
2022-12-09T19:11:52.244Z,11.10
2022-12-09T19:14:21.309Z,10.90
2022-12-09T19:16:48.319Z,11.65
2022-12-09T19:19:21.824Z,10.57
2022-12-09T19:21:48.809Z,11.25
2022-12-09T19:24:18.217Z,11.00
2022-12-09T19:26:45.647Z,11.13
2022-12-09T19:29:13.535Z,10.30
2022-12-09T19:31:43.463Z,12.52
2022-12-09T19:34:36.528Z,11.95
2022-12-09T19:37:03.783Z,11.20
2022-12-09T19:39:31.708Z,11.27
2022-12-09T19:41:59.009Z,11.27
2022-12-09T19:44:52.659Z,11.93
2022-12-09T19:47:13.455Z,11.18
2022-12-09T19:49:42.115Z,11.52
2022-12-09T19:52:08.795Z,10.27
2022-12-09T19:54:35.888Z,12.07
2022-12-09T19:57:02.636Z,11.50
2022-12-09T19:59:29.404Z,11.00
2022-12-09T20:01:56.205Z,10.57
2022-12-09T20:07:11.161Z,11.45
2022-12-09T20:09:38.080Z,10.80
2022-12-09T20:12:05.089Z,11.57
2022-12-09T20:14:31.780Z,11.25
2022-12-09T20:16:58.407Z,10.57
2022-12-09T20:19:25.167Z,10.77
2022-12-09T20:21:51.905Z,11.82
2022-12-09T20:24:18.742Z,10.93
2022-12-09T20:26:45.436Z,12.00
2022-12-09T20:29:12.190Z,11.90
2022-12-09T20:31:39.667Z,13.00
2022-12-09T20:34:10.758Z,11.90
2022-12-09T20:36:40.650Z,11.63
2022-12-09T20:39:12.600Z,11.32
2022-12-09T20:41:40.084Z,11.85
2022-12-09T20:44:06.795Z,11.15
2022-12-09T20:46:33.859Z,11.57
2022-12-09T20:49:00.761Z,10.93
2022-12-09T20:51:30.650Z,11.98
2022-12-09T20:53:58.602Z,11.18
2022-12-09T20:56:27.210Z,11.40
2022-12-09T20:58:54.921Z,11.02
2022-12-09T21:01:23.632Z,11.65
2022-12-09T21:03:51.536Z,10.25
2022-12-09T21:06:20.522Z,11.38
2022-12-09T21:08:47.892Z,10.90
2022-12-09T21:11:17.657Z,9.93
2022-12-09T21:13:46.926Z,11.95
2022-12-09T21:16:20.324Z,11.43
2022-12-09T21:18:51.075Z,10.88
2022-12-09T21:21:18.945Z,11.02
2022-12-09T21:23:46.175Z,11.63
2022-12-09T21:26:18.803Z,11.27
2022-12-09T21:28:47.106Z,10.70
2022-12-09T21:31:14.984Z,11.38
2022-12-09T21:33:42.970Z,12.00
2022-12-09T21:36:12.846Z,9.57
2022-12-09T21:38:40.460Z,11.80
2022-12-09T21:41:18.742Z,11.15
2022-12-09T21:43:46.313Z,12.18
2022-12-09T21:46:34.520Z,12.00
2022-12-09T21:49:04.215Z,12.02
2022-12-09T21:51:32.370Z,12.32
2022-12-09T21:53:59.478Z,11.25
2022-12-09T21:56:30.181Z,10.45
2022-12-09T21:58:58.308Z,12.23
2022-12-09T22:01:34.056Z,15.98
2022-12-09T22:04:03.364Z,10.80
2022-12-09T22:06:30.542Z,11.15
2022-12-09T22:09:01.259Z,11.20
2022-12-09T22:11:31.760Z,10.38
2022-12-09T22:14:00.750Z,11.68
2022-12-09T22:16:31.641Z,14.60
2022-12-09T22:19:00.627Z,10.98
2022-12-09T22:21:29.633Z,12.07
2022-12-09T22:23:59.461Z,11.48
2022-12-09T22:26:27.069Z,10.63
2022-12-09T22:28:54.207Z,10.90
2022-12-09T22:31:23.863Z,11.73
2022-12-09T22:33:52.639Z,11.00
2022-12-09T22:36:20.471Z,11.02
2022-12-09T22:38:47.927Z,9.35
2022-12-09T22:41:20.983Z,9.63
2022-12-09T22:43:49.076Z,11.50
2022-12-09T22:46:29.205Z,9.70
2022-12-09T22:48:57.887Z,10.77
2022-12-09T22:51:27.626Z,10.05
2022-12-09T22:53:56.160Z,10.00
2022-12-09T22:56:23.899Z,11.15
2022-12-09T22:58:51.055Z,10.23
2022-12-09T23:01:21.328Z,11.18
2022-12-09T23:03:48.031Z,10.55
2022-12-09T23:06:14.923Z,10.95
2022-12-09T23:08:43.412Z,11.02
2022-12-09T23:11:16.081Z,10.40
2022-12-09T23:13:43.300Z,11.13
2022-12-09T23:16:16.151Z,11.18
2022-12-09T23:18:43.287Z,11.50
2022-12-09T23:21:16.205Z,12.10
2022-12-09T23:23:43.220Z,9.98
2022-12-09T23:26:15.359Z,10.35
2022-12-09T23:28:45.093Z,11.63
2022-12-09T23:31:14.477Z,10.75
2022-12-09T23:33:43.345Z,10.60
2022-12-09T23:36:18.515Z,9.90
2022-12-09T23:38:45.770Z,10.48
2022-12-09T23:41:12.747Z,10.23
2022-12-09T23:43:40.162Z,10.70
2022-12-09T23:46:15.162Z,11.48
2022-12-09T23:48:44.343Z,10.95
2022-12-09T23:51:17.955Z,10.50
2022-12-09T23:53:46.420Z,11.38
2022-12-09T23:56:15.918Z,9.82
2022-12-09T23:58:43.260Z,10.57
